sensor_id;sensor_type;location;lat;lon;timestamp;P1;durP1;ratioP1;P2;durP2;ratioP2
5416;SDS011;2731;50.754;12.990;2024-01-07T00:00:19;52.70;;;20.00;;
5416;SDS011;2731;50.754;12.990;2024-01-07T00:02:45;45.65;;;19.55;;
5416;SDS011;2731;50.754;12.990;2024-01-07T00:05:11;94.30;;;22.88;;
5416;SDS011;2731;50.754;12.990;2024-01-07T00:07:38;51.42;;;19.85;;
5416;SDS011;2731;50.754;12.990;2024-01-07T00:10:07;133.70;;;27.02;;
5416;SDS011;2731;50.754;12.990;2024-01-07T00:12:35;45.85;;;19.70;;
5416;SDS011;2731;50.754;12.990;2024-01-07T00:15:01;80.18;;;23.88;;
5416;SDS011;2731;50.754;12.990;2024-01-07T00:17:27;58.70;;;20.80;;
5416;SDS011;2731;50.754;12.990;2024-01-07T00:19:54;56.63;;;20.92;;
5416;SDS011;2731;50.754;12.990;2024-01-07T00:22:20;43.38;;;20.25;;
5416;SDS011;2731;50.754;12.990;2024-01-07T00:24:46;47.15;;;21.10;;
5416;SDS011;2731;50.754;12.990;2024-01-07T00:27:15;76.65;;;23.80;;
5416;SDS011;2731;50.754;12.990;2024-01-07T00:29:42;67.82;;;21.55;;
5416;SDS011;2731;50.754;12.990;2024-01-07T00:32:12;42.85;;;19.40;;
5416;SDS011;2731;50.754;12.990;2024-01-07T00:34:38;48.53;;;19.92;;
5416;SDS011;2731;50.754;12.990;2024-01-07T00:37:07;47.75;;;20.77;;
5416;SDS011;2731;50.754;12.990;2024-01-07T00:39:33;42.47;;;21.30;;
5416;SDS011;2731;50.754;12.990;2024-01-07T00:42:00;55.70;;;21.70;;
5416;SDS011;2731;50.754;12.990;2024-01-07T00:44:26;40.45;;;19.63;;
5416;SDS011;2731;50.754;12.990;2024-01-07T00:46:53;37.53;;;18.40;;
5416;SDS011;2731;50.754;12.990;2024-01-07T00:49:19;44.72;;;18.92;;
5416;SDS011;2731;50.754;12.990;2024-01-07T00:51:45;45.55;;;19.48;;
5416;SDS011;2731;50.754;12.990;2024-01-07T00:54:11;39.17;;;18.60;;
5416;SDS011;2731;50.754;12.990;2024-01-07T00:56:37;33.92;;;15.85;;
5416;SDS011;2731;50.754;12.990;2024-01-07T00:59:03;31.45;;;16.35;;
5416;SDS011;2731;50.754;12.990;2024-01-07T01:01:31;32.50;;;15.77;;
5416;SDS011;2731;50.754;12.990;2024-01-07T01:03:57;29.40;;;14.68;;
5416;SDS011;2731;50.754;12.990;2024-01-07T01:06:26;34.58;;;16.35;;
5416;SDS011;2731;50.754;12.990;2024-01-07T01:08:52;30.20;;;16.00;;
5416;SDS011;2731;50.754;12.990;2024-01-07T01:11:18;34.55;;;17.08;;
5416;SDS011;2731;50.754;12.990;2024-01-07T01:13:44;28.42;;;14.75;;
5416;SDS011;2731;50.754;12.990;2024-01-07T01:16:10;26.83;;;15.45;;
5416;SDS011;2731;50.754;12.990;2024-01-07T01:18:36;32.05;;;15.70;;
5416;SDS011;2731;50.754;12.990;2024-01-07T01:21:02;28.63;;;15.65;;
5416;SDS011;2731;50.754;12.990;2024-01-07T01:23:28;31.98;;;16.83;;
5416;SDS011;2731;50.754;12.990;2024-01-07T01:25:54;28.98;;;16.10;;
5416;SDS011;2731;50.754;12.990;2024-01-07T01:28:22;34.78;;;18.05;;
5416;SDS011;2731;50.754;12.990;2024-01-07T01:30:49;35.25;;;18.42;;
5416;SDS011;2731;50.754;12.990;2024-01-07T01:33:15;43.00;;;19.42;;
5416;SDS011;2731;50.754;12.990;2024-01-07T01:35:42;38.67;;;19.52;;
5416;SDS011;2731;50.754;12.990;2024-01-07T01:38:08;41.40;;;19.23;;
5416;SDS011;2731;50.754;12.990;2024-01-07T01:40:34;54.03;;;23.02;;
5416;SDS011;2731;50.754;12.990;2024-01-07T01:43:00;43.08;;;20.80;;
5416;SDS011;2731;50.754;12.990;2024-01-07T01:45:26;46.30;;;23.80;;
5416;SDS011;2731;50.754;12.990;2024-01-07T01:47:52;50.83;;;23.38;;
5416;SDS011;2731;50.754;12.990;2024-01-07T01:50:19;43.78;;;21.17;;
5416;SDS011;2731;50.754;12.990;2024-01-07T01:52:45;47.67;;;22.77;;
5416;SDS011;2731;50.754;12.990;2024-01-07T01:55:12;50.78;;;24.42;;
5416;SDS011;2731;50.754;12.990;2024-01-07T01:57:38;50.85;;;23.33;;
5416;SDS011;2731;50.754;12.990;2024-01-07T02:00:05;51.03;;;24.80;;
5416;SDS011;2731;50.754;12.990;2024-01-07T02:02:35;52.28;;;25.85;;
5416;SDS011;2731;50.754;12.990;2024-01-07T02:05:06;52.78;;;26.33;;
5416;SDS011;2731;50.754;12.990;2024-01-07T02:07:33;46.07;;;22.27;;
5416;SDS011;2731;50.754;12.990;2024-01-07T02:10:00;50.63;;;24.73;;
5416;SDS011;2731;50.754;12.990;2024-01-07T02:12:26;48.58;;;23.70;;
5416;SDS011;2731;50.754;12.990;2024-01-07T02:14:53;57.22;;;26.38;;
5416;SDS011;2731;50.754;12.990;2024-01-07T02:17:22;49.83;;;23.15;;
5416;SDS011;2731;50.754;12.990;2024-01-07T02:19:48;51.50;;;24.35;;
5416;SDS011;2731;50.754;12.990;2024-01-07T02:22:14;50.85;;;24.45;;
5416;SDS011;2731;50.754;12.990;2024-01-07T02:24:40;55.90;;;25.83;;
5416;SDS011;2731;50.754;12.990;2024-01-07T02:27:06;55.15;;;25.30;;
5416;SDS011;2731;50.754;12.990;2024-01-07T02:29:32;51.65;;;25.38;;
5416;SDS011;2731;50.754;12.990;2024-01-07T02:31:58;46.53;;;24.08;;
5416;SDS011;2731;50.754;12.990;2024-01-07T02:34:24;42.97;;;21.75;;
5416;SDS011;2731;50.754;12.990;2024-01-07T02:36:50;44.80;;;22.95;;
5416;SDS011;2731;50.754;12.990;2024-01-07T02:39:16;50.53;;;23.20;;
5416;SDS011;2731;50.754;12.990;2024-01-07T02:41:44;42.83;;;20.35;;
5416;SDS011;2731;50.754;12.990;2024-01-07T02:44:10;37.05;;;20.00;;
5416;SDS011;2731;50.754;12.990;2024-01-07T02:46:36;33.25;;;19.52;;
5416;SDS011;2731;50.754;12.990;2024-01-07T02:49:02;36.88;;;17.80;;
5416;SDS011;2731;50.754;12.990;2024-01-07T02:51:28;33.90;;;17.25;;
5416;SDS011;2731;50.754;12.990;2024-01-07T02:53:54;41.35;;;21.40;;
5416;SDS011;2731;50.754;12.990;2024-01-07T02:56:20;37.17;;;19.30;;
5416;SDS011;2731;50.754;12.990;2024-01-07T02:58:49;41.25;;;20.13;;
5416;SDS011;2731;50.754;12.990;2024-01-07T03:01:15;35.95;;;18.65;;
5416;SDS011;2731;50.754;12.990;2024-01-07T03:03:41;36.20;;;19.48;;
5416;SDS011;2731;50.754;12.990;2024-01-07T03:06:07;38.38;;;17.88;;
5416;SDS011;2731;50.754;12.990;2024-01-07T03:08:33;36.47;;;17.98;;
5416;SDS011;2731;50.754;12.990;2024-01-07T03:11:04;33.90;;;18.10;;
5416;SDS011;2731;50.754;12.990;2024-01-07T03:13:30;40.42;;;20.33;;
5416;SDS011;2731;50.754;12.990;2024-01-07T03:15:56;44.80;;;23.48;;
5416;SDS011;2731;50.754;12.990;2024-01-07T03:18:22;47.50;;;24.48;;
5416;SDS011;2731;50.754;12.990;2024-01-07T03:20:48;46.00;;;21.65;;
5416;SDS011;2731;50.754;12.990;2024-01-07T03:23:14;47.95;;;23.00;;
5416;SDS011;2731;50.754;12.990;2024-01-07T03:25:40;41.08;;;20.73;;
5416;SDS011;2731;50.754;12.990;2024-01-07T03:28:06;48.45;;;22.90;;
5416;SDS011;2731;50.754;12.990;2024-01-07T03:30:33;47.65;;;23.63;;
5416;SDS011;2731;50.754;12.990;2024-01-07T03:32:59;53.22;;;25.23;;
5416;SDS011;2731;50.754;12.990;2024-01-07T03:35:27;52.65;;;23.85;;
5416;SDS011;2731;50.754;12.990;2024-01-07T03:37:54;53.95;;;24.23;;
5416;SDS011;2731;50.754;12.990;2024-01-07T03:40:23;46.47;;;22.35;;
5416;SDS011;2731;50.754;12.990;2024-01-07T03:42:49;48.05;;;22.50;;
5416;SDS011;2731;50.754;12.990;2024-01-07T03:45:15;53.58;;;22.73;;
5416;SDS011;2731;50.754;12.990;2024-01-07T03:47:41;48.28;;;21.80;;
5416;SDS011;2731;50.754;12.990;2024-01-07T03:50:07;48.77;;;23.00;;
5416;SDS011;2731;50.754;12.990;2024-01-07T03:52:33;42.97;;;22.27;;
5416;SDS011;2731;50.754;12.990;2024-01-07T03:55:00;50.53;;;24.27;;
5416;SDS011;2731;50.754;12.990;2024-01-07T03:57:26;52.53;;;25.30;;
5416;SDS011;2731;50.754;12.990;2024-01-07T03:59:52;47.25;;;23.65;;
5416;SDS011;2731;50.754;12.990;2024-01-07T04:02:18;49.28;;;23.02;;
5416;SDS011;2731;50.754;12.990;2024-01-07T04:04:44;52.72;;;24.38;;
5416;SDS011;2731;50.754;12.990;2024-01-07T04:07:10;47.83;;;22.90;;
5416;SDS011;2731;50.754;12.990;2024-01-07T04:09:36;47.70;;;21.85;;
5416;SDS011;2731;50.754;12.990;2024-01-07T04:12:03;53.10;;;23.17;;
5416;SDS011;2731;50.754;12.990;2024-01-07T04:14:29;50.33;;;22.67;;
5416;SDS011;2731;50.754;12.990;2024-01-07T04:17:17;42.85;;;22.20;;
5416;SDS011;2731;50.754;12.990;2024-01-07T04:20:01;41.97;;;21.30;;
5416;SDS011;2731;50.754;12.990;2024-01-07T04:22:46;48.90;;;20.15;;
5416;SDS011;2731;50.754;12.990;2024-01-07T04:25:32;44.28;;;21.70;;
5416;SDS011;2731;50.754;12.990;2024-01-07T04:28:18;38.92;;;18.83;;
5416;SDS011;2731;50.754;12.990;2024-01-07T04:31:02;47.28;;;21.80;;
5416;SDS011;2731;50.754;12.990;2024-01-07T04:33:28;49.50;;;21.83;;
5416;SDS011;2731;50.754;12.990;2024-01-07T04:36:13;41.75;;;20.17;;
5416;SDS011;2731;50.754;12.990;2024-01-07T04:38:58;38.50;;;19.27;;
5416;SDS011;2731;50.754;12.990;2024-01-07T04:41:43;46.08;;;22.27;;
5416;SDS011;2731;50.754;12.990;2024-01-07T04:44:31;44.95;;;21.00;;
5416;SDS011;2731;50.754;12.990;2024-01-07T04:49:54;43.40;;;21.75;;
5416;SDS011;2731;50.754;12.990;2024-01-07T04:52:21;45.22;;;21.33;;
5416;SDS011;2731;50.754;12.990;2024-01-07T04:55:07;40.25;;;20.63;;
5416;SDS011;2731;50.754;12.990;2024-01-07T04:57:53;42.13;;;20.33;;
5416;SDS011;2731;50.754;12.990;2024-01-07T05:00:40;43.47;;;20.98;;
5416;SDS011;2731;50.754;12.990;2024-01-07T05:03:25;40.17;;;18.65;;
5416;SDS011;2731;50.754;12.990;2024-01-07T05:05:52;38.03;;;18.08;;
5416;SDS011;2731;50.754;12.990;2024-01-07T05:08:40;45.42;;;21.13;;
5416;SDS011;2731;50.754;12.990;2024-01-07T05:11:24;39.25;;;19.75;;
5416;SDS011;2731;50.754;12.990;2024-01-07T05:14:13;44.35;;;18.58;;
5416;SDS011;2731;50.754;12.990;2024-01-07T05:17:00;46.72;;;21.75;;
5416;SDS011;2731;50.754;12.990;2024-01-07T05:19:45;39.28;;;20.30;;
5416;SDS011;2731;50.754;12.990;2024-01-07T05:22:14;39.05;;;19.20;;
5416;SDS011;2731;50.754;12.990;2024-01-07T05:24:40;37.72;;;19.52;;
5416;SDS011;2731;50.754;12.990;2024-01-07T05:27:09;56.97;;;22.77;;
5416;SDS011;2731;50.754;12.990;2024-01-07T05:29:54;44.08;;;21.60;;
5416;SDS011;2731;50.754;12.990;2024-01-07T05:32:39;50.20;;;23.02;;
5416;SDS011;2731;50.754;12.990;2024-01-07T05:35:23;50.55;;;21.85;;
5416;SDS011;2731;50.754;12.990;2024-01-07T05:38:08;47.00;;;21.60;;
5416;SDS011;2731;50.754;12.990;2024-01-07T05:40:53;48.83;;;22.15;;
5416;SDS011;2731;50.754;12.990;2024-01-07T05:43:38;43.95;;;20.90;;
5416;SDS011;2731;50.754;12.990;2024-01-07T05:46:22;44.47;;;21.08;;
5416;SDS011;2731;50.754;12.990;2024-01-07T05:48:49;47.35;;;20.85;;
5416;SDS011;2731;50.754;12.990;2024-01-07T05:51:33;40.08;;;18.40;;
5416;SDS011;2731;50.754;12.990;2024-01-07T05:54:18;42.08;;;18.17;;
5416;SDS011;2731;50.754;12.990;2024-01-07T05:57:02;41.97;;;18.27;;
5416;SDS011;2731;50.754;12.990;2024-01-07T05:59:47;39.10;;;18.13;;
5416;SDS011;2731;50.754;12.990;2024-01-07T06:02:34;43.65;;;19.23;;
5416;SDS011;2731;50.754;12.990;2024-01-07T06:05:19;40.38;;;18.15;;
5416;SDS011;2731;50.754;12.990;2024-01-07T06:07:45;43.42;;;19.42;;
5416;SDS011;2731;50.754;12.990;2024-01-07T06:10:29;32.05;;;15.68;;
5416;SDS011;2731;50.754;12.990;2024-01-07T06:13:14;38.45;;;18.92;;
5416;SDS011;2731;50.754;12.990;2024-01-07T06:15:59;37.78;;;18.38;;
5416;SDS011;2731;50.754;12.990;2024-01-07T06:18:44;45.08;;;20.95;;
5416;SDS011;2731;50.754;12.990;2024-01-07T06:21:28;35.17;;;17.40;;
5416;SDS011;2731;50.754;12.990;2024-01-07T06:24:13;37.88;;;16.70;;
5416;SDS011;2731;50.754;12.990;2024-01-07T06:26:40;33.22;;;17.00;;
5416;SDS011;2731;50.754;12.990;2024-01-07T06:29:25;34.58;;;16.73;;
5416;SDS011;2731;50.754;12.990;2024-01-07T06:32:09;37.13;;;18.05;;
5416;SDS011;2731;50.754;12.990;2024-01-07T06:34:54;36.97;;;17.13;;
5416;SDS011;2731;50.754;12.990;2024-01-07T06:37:41;37.45;;;18.10;;
5416;SDS011;2731;50.754;12.990;2024-01-07T06:40:25;37.45;;;16.40;;
5416;SDS011;2731;50.754;12.990;2024-01-07T06:43:11;33.95;;;15.68;;
5416;SDS011;2731;50.754;12.990;2024-01-07T06:45:38;35.75;;;16.15;;
5416;SDS011;2731;50.754;12.990;2024-01-07T06:48:23;31.67;;;14.35;;
5416;SDS011;2731;50.754;12.990;2024-01-07T06:51:07;29.95;;;14.93;;
5416;SDS011;2731;50.754;12.990;2024-01-07T06:53:53;33.95;;;14.90;;
5416;SDS011;2731;50.754;12.990;2024-01-07T06:56:38;37.50;;;15.93;;
5416;SDS011;2731;50.754;12.990;2024-01-07T06:59:24;37.25;;;16.15;;
5416;SDS011;2731;50.754;12.990;2024-01-07T07:01:51;35.08;;;16.33;;
5416;SDS011;2731;50.754;12.990;2024-01-07T07:04:41;32.40;;;15.25;;
5416;SDS011;2731;50.754;12.990;2024-01-07T07:07:25;27.40;;;12.75;;
5416;SDS011;2731;50.754;12.990;2024-01-07T07:10:10;32.25;;;13.77;;
5416;SDS011;2731;50.754;12.990;2024-01-07T07:12:55;30.33;;;13.98;;
5416;SDS011;2731;50.754;12.990;2024-01-07T07:15:40;29.63;;;13.10;;
5416;SDS011;2731;50.754;12.990;2024-01-07T07:18:25;30.35;;;14.10;;
5416;SDS011;2731;50.754;12.990;2024-01-07T07:20:52;31.88;;;13.23;;
5416;SDS011;2731;50.754;12.990;2024-01-07T07:23:36;32.08;;;13.88;;
5416;SDS011;2731;50.754;12.990;2024-01-07T07:26:22;35.28;;;14.45;;
5416;SDS011;2731;50.754;12.990;2024-01-07T07:29:07;27.00;;;12.35;;
5416;SDS011;2731;50.754;12.990;2024-01-07T07:31:55;33.67;;;12.63;;
5416;SDS011;2731;50.754;12.990;2024-01-07T07:34:40;31.52;;;14.80;;
5416;SDS011;2731;50.754;12.990;2024-01-07T07:37:15;25.70;;;12.73;;
5416;SDS011;2731;50.754;12.990;2024-01-07T07:40:00;30.23;;;12.95;;
5416;SDS011;2731;50.754;12.990;2024-01-07T07:42:46;23.42;;;12.30;;
5416;SDS011;2731;50.754;12.990;2024-01-07T07:45:30;26.52;;;11.73;;
5416;SDS011;2731;50.754;12.990;2024-01-07T07:48:16;23.98;;;11.23;;
5416;SDS011;2731;50.754;12.990;2024-01-07T07:51:01;19.75;;;10.15;;
5416;SDS011;2731;50.754;12.990;2024-01-07T07:53:42;19.88;;;8.93;;
5416;SDS011;2731;50.754;12.990;2024-01-07T07:56:28;18.65;;;9.45;;
5416;SDS011;2731;50.754;12.990;2024-01-07T07:59:12;19.90;;;8.82;;
5416;SDS011;2731;50.754;12.990;2024-01-07T08:01:57;24.35;;;10.50;;
5416;SDS011;2731;50.754;12.990;2024-01-07T08:04:33;17.60;;;8.68;;
5416;SDS011;2731;50.754;12.990;2024-01-07T08:06:59;19.77;;;9.95;;
5416;SDS011;2731;50.754;12.990;2024-01-07T08:09:28;16.80;;;9.40;;
5416;SDS011;2731;50.754;12.990;2024-01-07T08:12:13;19.70;;;10.55;;
5416;SDS011;2731;50.754;12.990;2024-01-07T08:14:58;16.95;;;9.55;;
5416;SDS011;2731;50.754;12.990;2024-01-07T08:17:42;17.15;;;9.13;;
5416;SDS011;2731;50.754;12.990;2024-01-07T08:20:27;19.67;;;10.75;;
5416;SDS011;2731;50.754;12.990;2024-01-07T08:23:13;15.40;;;8.93;;
5416;SDS011;2731;50.754;12.990;2024-01-07T08:25:57;13.88;;;8.57;;
5416;SDS011;2731;50.754;12.990;2024-01-07T08:28:24;19.27;;;9.07;;
5416;SDS011;2731;50.754;12.990;2024-01-07T08:31:08;17.60;;;9.13;;
5416;SDS011;2731;50.754;12.990;2024-01-07T08:33:54;15.60;;;8.70;;
5416;SDS011;2731;50.754;12.990;2024-01-07T08:36:38;15.88;;;9.18;;
5416;SDS011;2731;50.754;12.990;2024-01-07T08:39:23;13.32;;;8.35;;
5416;SDS011;2731;50.754;12.990;2024-01-07T08:42:09;20.40;;;9.77;;
5416;SDS011;2731;50.754;12.990;2024-01-07T08:44:35;20.60;;;10.15;;
5416;SDS011;2731;50.754;12.990;2024-01-07T08:47:01;18.25;;;9.55;;
5416;SDS011;2731;50.754;12.990;2024-01-07T08:49:46;13.95;;;8.82;;
5416;SDS011;2731;50.754;12.990;2024-01-07T08:52:31;17.17;;;9.23;;
5416;SDS011;2731;50.754;12.990;2024-01-07T08:55:19;18.75;;;10.70;;
5416;SDS011;2731;50.754;12.990;2024-01-07T08:58:03;19.75;;;10.25;;
5416;SDS011;2731;50.754;12.990;2024-01-07T09:00:49;16.77;;;9.75;;
5416;SDS011;2731;50.754;12.990;2024-01-07T09:03:34;18.15;;;9.98;;
5416;SDS011;2731;50.754;12.990;2024-01-07T09:06:01;18.55;;;10.13;;
5416;SDS011;2731;50.754;12.990;2024-01-07T09:08:46;16.08;;;10.57;;
5416;SDS011;2731;50.754;12.990;2024-01-07T09:11:31;20.42;;;10.32;;
5416;SDS011;2731;50.754;12.990;2024-01-07T09:14:16;17.73;;;9.73;;
5416;SDS011;2731;50.754;12.990;2024-01-07T09:17:02;15.90;;;8.18;;
5416;SDS011;2731;50.754;12.990;2024-01-07T09:19:47;17.20;;;9.48;;
5416;SDS011;2731;50.754;12.990;2024-01-07T09:22:32;15.32;;;8.55;;
5416;SDS011;2731;50.754;12.990;2024-01-07T09:25:02;14.20;;;8.63;;
5416;SDS011;2731;50.754;12.990;2024-01-07T09:27:47;15.32;;;8.40;;
5416;SDS011;2731;50.754;12.990;2024-01-07T09:30:32;13.60;;;8.98;;
5416;SDS011;2731;50.754;12.990;2024-01-07T09:33:17;26.38;;;9.43;;
5416;SDS011;2731;50.754;12.990;2024-01-07T09:36:03;19.85;;;10.15;;
5416;SDS011;2731;50.754;12.990;2024-01-07T09:38:51;14.90;;;8.98;;
5416;SDS011;2731;50.754;12.990;2024-01-07T09:41:37;13.15;;;8.23;;
5416;SDS011;2731;50.754;12.990;2024-01-07T09:44:04;17.55;;;9.10;;
5416;SDS011;2731;50.754;12.990;2024-01-07T09:46:32;12.77;;;7.35;;
5416;SDS011;2731;50.754;12.990;2024-01-07T09:49:18;12.45;;;7.90;;
5416;SDS011;2731;50.754;12.990;2024-01-07T09:52:03;16.77;;;6.72;;
5416;SDS011;2731;50.754;12.990;2024-01-07T09:54:50;11.02;;;6.65;;
5416;SDS011;2731;50.754;12.990;2024-01-07T09:57:39;13.40;;;7.47;;
5416;SDS011;2731;50.754;12.990;2024-01-07T10:00:28;11.15;;;6.72;;
5416;SDS011;2731;50.754;12.990;2024-01-07T10:03:13;9.35;;;5.90;;
5416;SDS011;2731;50.754;12.990;2024-01-07T10:05:40;14.02;;;6.30;;
5416;SDS011;2731;50.754;12.990;2024-01-07T10:08:24;10.82;;;6.47;;
5416;SDS011;2731;50.754;12.990;2024-01-07T10:11:09;11.25;;;6.07;;
5416;SDS011;2731;50.754;12.990;2024-01-07T10:13:54;15.02;;;6.57;;
5416;SDS011;2731;50.754;12.990;2024-01-07T10:16:39;11.30;;;7.25;;
5416;SDS011;2731;50.754;12.990;2024-01-07T10:19:24;9.60;;;5.25;;
5416;SDS011;2731;50.754;12.990;2024-01-07T10:22:00;9.65;;;6.05;;
5416;SDS011;2731;50.754;12.990;2024-01-07T10:24:45;13.63;;;6.07;;
5416;SDS011;2731;50.754;12.990;2024-01-07T10:27:35;12.90;;;6.13;;
5416;SDS011;2731;50.754;12.990;2024-01-07T10:30:21;7.88;;;5.10;;
5416;SDS011;2731;50.754;12.990;2024-01-07T10:33:07;9.75;;;5.45;;
5416;SDS011;2731;50.754;12.990;2024-01-07T10:35:52;12.00;;;6.55;;
5416;SDS011;2731;50.754;12.990;2024-01-07T10:38:41;8.82;;;5.53;;
5416;SDS011;2731;50.754;12.990;2024-01-07T10:41:12;8.95;;;5.78;;
5416;SDS011;2731;50.754;12.990;2024-01-07T10:43:58;9.13;;;5.30;;
5416;SDS011;2731;50.754;12.990;2024-01-07T10:46:44;10.77;;;5.90;;
5416;SDS011;2731;50.754;12.990;2024-01-07T10:49:32;12.13;;;6.25;;
5416;SDS011;2731;50.754;12.990;2024-01-07T10:52:19;8.43;;;5.38;;
5416;SDS011;2731;50.754;12.990;2024-01-07T10:55:08;9.88;;;5.72;;
5416;SDS011;2731;50.754;12.990;2024-01-07T10:57:38;8.15;;;5.60;;
5416;SDS011;2731;50.754;12.990;2024-01-07T11:00:28;8.32;;;4.47;;
5416;SDS011;2731;50.754;12.990;2024-01-07T11:03:17;10.40;;;5.40;;
5416;SDS011;2731;50.754;12.990;2024-01-07T11:06:05;9.85;;;6.13;;
5416;SDS011;2731;50.754;12.990;2024-01-07T11:11:37;10.35;;;5.55;;
5416;SDS011;2731;50.754;12.990;2024-01-07T11:14:34;8.88;;;5.32;;
5416;SDS011;2731;50.754;12.990;2024-01-07T11:20:18;8.40;;;5.00;;
5416;SDS011;2731;50.754;12.990;2024-01-07T11:26:07;8.77;;;5.50;;
5416;SDS011;2731;50.754;12.990;2024-01-07T11:28:56;8.27;;;4.90;;
5416;SDS011;2731;50.754;12.990;2024-01-07T11:34:38;8.55;;;4.40;;
5416;SDS011;2731;50.754;12.990;2024-01-07T11:37:25;9.90;;;5.82;;
5416;SDS011;2731;50.754;12.990;2024-01-07T11:40:10;8.23;;;4.65;;
5416;SDS011;2731;50.754;12.990;2024-01-07T11:42:55;6.35;;;4.15;;
5416;SDS011;2731;50.754;12.990;2024-01-07T11:45:36;7.10;;;4.22;;
5416;SDS011;2731;50.754;12.990;2024-01-07T11:48:21;6.85;;;4.28;;
5416;SDS011;2731;50.754;12.990;2024-01-07T11:51:06;7.88;;;4.15;;
5416;SDS011;2731;50.754;12.990;2024-01-07T11:53:51;7.75;;;4.13;;
5416;SDS011;2731;50.754;12.990;2024-01-07T11:56:36;6.25;;;3.53;;
5416;SDS011;2731;50.754;12.990;2024-01-07T11:59:22;8.20;;;3.78;;
5416;SDS011;2731;50.754;12.990;2024-01-07T12:02:07;6.93;;;4.45;;
5416;SDS011;2731;50.754;12.990;2024-01-07T12:04:34;7.28;;;4.00;;
5416;SDS011;2731;50.754;12.990;2024-01-07T12:07:21;5.65;;;3.72;;
5416;SDS011;2731;50.754;12.990;2024-01-07T12:10:07;6.30;;;4.10;;
5416;SDS011;2731;50.754;12.990;2024-01-07T12:12:55;6.75;;;4.00;;
5416;SDS011;2731;50.754;12.990;2024-01-07T12:15:40;7.60;;;4.28;;
5416;SDS011;2731;50.754;12.990;2024-01-07T12:18:25;5.82;;;3.55;;
5416;SDS011;2731;50.754;12.990;2024-01-07T12:21:10;6.82;;;3.88;;
5416;SDS011;2731;50.754;12.990;2024-01-07T12:23:37;7.68;;;4.45;;
5416;SDS011;2731;50.754;12.990;2024-01-07T12:26:25;5.85;;;3.75;;
5416;SDS011;2731;50.754;12.990;2024-01-07T12:28:52;9.77;;;4.43;;
5416;SDS011;2731;50.754;12.990;2024-01-07T12:31:40;5.53;;;3.70;;
5416;SDS011;2731;50.754;12.990;2024-01-07T12:34:30;6.03;;;4.50;;
5416;SDS011;2731;50.754;12.990;2024-01-07T12:37:15;6.80;;;3.65;;
5416;SDS011;2731;50.754;12.990;2024-01-07T12:40:03;5.10;;;3.50;;
5416;SDS011;2731;50.754;12.990;2024-01-07T12:42:50;7.30;;;3.63;;
5416;SDS011;2731;50.754;12.990;2024-01-07T12:45:32;8.43;;;4.25;;
5416;SDS011;2731;50.754;12.990;2024-01-07T12:47:58;6.97;;;3.60;;
5416;SDS011;2731;50.754;12.990;2024-01-07T12:50:28;5.05;;;3.40;;
5416;SDS011;2731;50.754;12.990;2024-01-07T12:53:15;7.43;;;4.22;;
5416;SDS011;2731;50.754;12.990;2024-01-07T12:56:00;6.03;;;3.53;;
5416;SDS011;2731;50.754;12.990;2024-01-07T12:58:45;6.45;;;3.83;;
5416;SDS011;2731;50.754;12.990;2024-01-07T13:01:30;10.50;;;4.57;;
5416;SDS011;2731;50.754;12.990;2024-01-07T13:04:14;6.75;;;4.03;;
5416;SDS011;2731;50.754;12.990;2024-01-07T13:07:00;7.57;;;3.95;;
5416;SDS011;2731;50.754;12.990;2024-01-07T13:09:26;8.32;;;3.67;;
5416;SDS011;2731;50.754;12.990;2024-01-07T13:12:12;6.35;;;3.78;;
5416;SDS011;2731;50.754;12.990;2024-01-07T13:14:57;6.38;;;3.83;;
5416;SDS011;2731;50.754;12.990;2024-01-07T13:17:44;6.15;;;4.22;;
5416;SDS011;2731;50.754;12.990;2024-01-07T13:20:29;7.82;;;3.50;;
5416;SDS011;2731;50.754;12.990;2024-01-07T13:23:17;6.43;;;3.38;;
5416;SDS011;2731;50.754;12.990;2024-01-07T13:26:02;6.65;;;3.65;;
5416;SDS011;2731;50.754;12.990;2024-01-07T13:28:49;4.95;;;3.20;;
5416;SDS011;2731;50.754;12.990;2024-01-07T13:31:15;4.50;;;3.33;;
5416;SDS011;2731;50.754;12.990;2024-01-07T13:33:43;11.20;;;3.40;;
5416;SDS011;2731;50.754;12.990;2024-01-07T13:36:30;6.88;;;3.78;;
5416;SDS011;2731;50.754;12.990;2024-01-07T13:39:15;6.63;;;3.88;;
5416;SDS011;2731;50.754;12.990;2024-01-07T13:42:00;6.93;;;3.42;;
5416;SDS011;2731;50.754;12.990;2024-01-07T13:44:45;6.97;;;3.88;;
5416;SDS011;2731;50.754;12.990;2024-01-07T13:47:30;4.85;;;3.03;;
5416;SDS011;2731;50.754;12.990;2024-01-07T13:49:59;4.32;;;2.90;;
5416;SDS011;2731;50.754;12.990;2024-01-07T13:52:43;7.50;;;3.15;;
5416;SDS011;2731;50.754;12.990;2024-01-07T13:55:29;5.30;;;3.25;;
5416;SDS011;2731;50.754;12.990;2024-01-07T13:58:13;5.20;;;3.45;;
5416;SDS011;2731;50.754;12.990;2024-01-07T14:00:59;5.75;;;3.05;;
5416;SDS011;2731;50.754;12.990;2024-01-07T14:03:25;5.22;;;3.38;;
5416;SDS011;2731;50.754;12.990;2024-01-07T14:06:10;5.03;;;2.88;;
5416;SDS011;2731;50.754;12.990;2024-01-07T14:08:36;6.15;;;3.47;;
5416;SDS011;2731;50.754;12.990;2024-01-07T14:11:24;5.07;;;2.63;;
5416;SDS011;2731;50.754;12.990;2024-01-07T14:14:10;6.90;;;2.30;;
5416;SDS011;2731;50.754;12.990;2024-01-07T14:16:55;4.70;;;3.03;;
5416;SDS011;2731;50.754;12.990;2024-01-07T14:19:40;3.72;;;2.33;;
5416;SDS011;2731;50.754;12.990;2024-01-07T14:22:27;3.70;;;2.45;;
5416;SDS011;2731;50.754;12.990;2024-01-07T14:25:12;3.40;;;2.35;;
5416;SDS011;2731;50.754;12.990;2024-01-07T14:27:39;4.05;;;2.70;;
5416;SDS011;2731;50.754;12.990;2024-01-07T14:30:24;5.50;;;2.70;;
5416;SDS011;2731;50.754;12.990;2024-01-07T14:33:09;4.22;;;2.45;;
5416;SDS011;2731;50.754;12.990;2024-01-07T14:35:54;2.80;;;2.13;;
5416;SDS011;2731;50.754;12.990;2024-01-07T14:38:39;4.43;;;2.28;;
5416;SDS011;2731;50.754;12.990;2024-01-07T14:41:23;3.33;;;2.33;;
5416;SDS011;2731;50.754;12.990;2024-01-07T14:44:05;3.07;;;2.10;;
5416;SDS011;2731;50.754;12.990;2024-01-07T14:46:33;6.05;;;2.88;;
5416;SDS011;2731;50.754;12.990;2024-01-07T14:49:18;3.88;;;2.13;;
5416;SDS011;2731;50.754;12.990;2024-01-07T14:52:03;4.57;;;2.70;;
5416;SDS011;2731;50.754;12.990;2024-01-07T14:54:48;4.57;;;2.63;;
5416;SDS011;2731;50.754;12.990;2024-01-07T14:57:32;3.90;;;2.63;;
5416;SDS011;2731;50.754;12.990;2024-01-07T15:00:17;4.72;;;2.65;;
5416;SDS011;2731;50.754;12.990;2024-01-07T15:02:49;5.60;;;2.40;;
5416;SDS011;2731;50.754;12.990;2024-01-07T15:05:34;5.43;;;3.25;;
5416;SDS011;2731;50.754;12.990;2024-01-07T15:08:20;4.85;;;2.42;;
5416;SDS011;2731;50.754;12.990;2024-01-07T15:10:46;4.15;;;2.50;;
5416;SDS011;2731;50.754;12.990;2024-01-07T15:13:12;8.73;;;3.63;;
5416;SDS011;2731;50.754;12.990;2024-01-07T15:15:38;4.15;;;2.90;;
5416;SDS011;2731;50.754;12.990;2024-01-07T15:18:05;6.10;;;2.40;;
5416;SDS011;2731;50.754;12.990;2024-01-07T15:20:31;4.47;;;2.42;;
5416;SDS011;2731;50.754;12.990;2024-01-07T15:22:57;5.13;;;2.78;;
5416;SDS011;2731;50.754;12.990;2024-01-07T15:25:23;5.63;;;2.35;;
5416;SDS011;2731;50.754;12.990;2024-01-07T15:27:50;6.47;;;3.35;;
5416;SDS011;2731;50.754;12.990;2024-01-07T15:30:16;5.40;;;2.30;;
5416;SDS011;2731;50.754;12.990;2024-01-07T15:32:42;3.65;;;2.35;;
5416;SDS011;2731;50.754;12.990;2024-01-07T15:35:09;3.70;;;2.47;;
5416;SDS011;2731;50.754;12.990;2024-01-07T15:37:35;4.05;;;2.33;;
5416;SDS011;2731;50.754;12.990;2024-01-07T15:40:01;6.50;;;2.40;;
5416;SDS011;2731;50.754;12.990;2024-01-07T15:42:28;4.30;;;2.38;;
5416;SDS011;2731;50.754;12.990;2024-01-07T15:44:54;4.75;;;2.35;;
5416;SDS011;2731;50.754;12.990;2024-01-07T15:47:20;3.08;;;2.15;;
5416;SDS011;2731;50.754;12.990;2024-01-07T15:49:48;4.15;;;2.53;;
5416;SDS011;2731;50.754;12.990;2024-01-07T15:52:14;2.80;;;2.22;;
5416;SDS011;2731;50.754;12.990;2024-01-07T15:54:40;4.82;;;2.60;;
5416;SDS011;2731;50.754;12.990;2024-01-07T15:57:06;5.72;;;2.85;;